Terminal Aerodrome Forecast
Issued by NWS

Home | Current Version | Previous Version | Text Only | Print | Product List | Glossary On
Versions: 1 2 3 4 5 6 7 8 9 10 11 12 13 14 15 16 17 18
392
FTUS46 KSEW 141751
TAFCLM
TAF
KCLM 141751Z 1418/1518 VRB03KT 6SM -RA BR SCT015 OVC050
     FM151300 27005KT 3SM -RA BR SCT009 BKN025 OVC045=

USA.gov is the U.S. government's official web portal to all federal, state and local government web resources and services.